createdAt,value
2023-03-29T00:02:07.862Z,93956.34
2023-03-29T00:04:35.141Z,93953.81
2023-03-29T00:07:04.422Z,93950.69
2023-03-29T00:09:33.230Z,93953.19
2023-03-29T00:12:01.422Z,93954.97
2023-03-29T00:14:31.137Z,93950.84
2023-03-29T00:16:58.615Z,93944.19
2023-03-29T00:19:25.876Z,93961.09
2023-03-29T00:21:53.077Z,93952.00
2023-03-29T00:24:21.234Z,93961.78
2023-03-29T00:26:48.534Z,93953.28
2023-03-29T00:29:16.120Z,93949.16
2023-03-29T00:31:45.992Z,93960.13
2023-03-29T00:34:13.377Z,93960.94
2023-03-29T00:36:40.635Z,93959.41
2023-03-29T00:39:07.689Z,93955.91
2023-03-29T00:41:34.880Z,93956.78
2023-03-29T00:44:03.508Z,93950.03
2023-03-29T00:46:31.637Z,93948.59
2023-03-29T00:49:03.856Z,93947.53
2023-03-29T00:51:34.276Z,93953.47
2023-03-29T00:54:02.535Z,93948.50
2023-03-29T00:56:31.646Z,93956.25
2023-03-29T00:59:01.451Z,93973.56
2023-03-29T01:01:34.142Z,93955.09
2023-03-29T01:04:07.116Z,93958.69
2023-03-29T01:06:35.409Z,93971.47
2023-03-29T01:09:04.944Z,93960.56
2023-03-29T01:11:36.368Z,93966.25
2023-03-29T01:14:05.595Z,93962.53
2023-03-29T01:16:35.306Z,94007.03
2023-03-29T01:19:04.656Z,93969.38
2023-03-29T01:21:34.275Z,93955.13
2023-03-29T01:24:18.250Z,93966.69
2023-03-29T01:26:55.515Z,93976.28
2023-03-29T01:29:26.508Z,93981.44
2023-03-29T01:34:30.306Z,93959.69
2023-03-29T01:37:01.098Z,93967.28
2023-03-29T01:39:28.057Z,93972.31
2023-03-29T01:42:02.194Z,93975.84
2023-03-29T01:44:32.198Z,93966.72
2023-03-29T01:47:04.642Z,93960.16
2023-03-29T01:49:34.676Z,93960.16
2023-03-29T01:52:05.569Z,93968.41
2023-03-29T01:54:35.378Z,93951.59
2023-03-29T01:57:06.004Z,93951.75
2023-03-29T01:59:37.278Z,93951.94
2023-03-29T02:02:05.788Z,93945.16
2023-03-29T02:04:34.731Z,93944.75
2023-03-29T02:07:03.486Z,93960.69
2023-03-29T02:09:32.169Z,93964.94
2023-03-29T02:12:00.845Z,93954.66
2023-03-29T02:14:27.957Z,93995.03
2023-03-29T02:16:56.390Z,93960.38
2023-03-29T02:19:25.213Z,93973.13
2023-03-29T02:21:57.832Z,93990.16
2023-03-29T02:24:26.412Z,93987.72
2023-03-29T02:26:53.676Z,93976.81
2023-03-29T02:29:20.704Z,93964.03
2023-03-29T02:31:51.934Z,93978.25
2023-03-29T02:34:22.493Z,93977.34
2023-03-29T02:36:52.007Z,93979.31
2023-03-29T02:39:20.378Z,93986.19
2023-03-29T02:41:49.739Z,93986.81
2023-03-29T02:44:19.494Z,93988.59
2023-03-29T02:46:48.889Z,93977.63
2023-03-29T02:49:16.146Z,93994.47
2023-03-29T02:51:45.243Z,93991.22
2023-03-29T02:54:14.012Z,93993.81
2023-03-29T02:56:43.527Z,93995.72
2023-03-29T02:59:12.174Z,94019.13
2023-03-29T03:01:44.905Z,94004.25
2023-03-29T03:04:13.366Z,94006.88
2023-03-29T03:06:40.624Z,94009.47
2023-03-29T03:09:11.426Z,94010.28
2023-03-29T03:11:41.781Z,94014.69
2023-03-29T03:14:08.906Z,94015.56
2023-03-29T03:16:37.120Z,94010.59
2023-03-29T03:19:04.482Z,94020.63
2023-03-29T03:21:31.478Z,94014.00
2023-03-29T03:24:00.121Z,94012.56
2023-03-29T03:26:31.583Z,94017.59
2023-03-29T03:28:58.614Z,94012.56
2023-03-29T03:31:44.712Z,94019.31
2023-03-29T03:34:31.878Z,94034.63
2023-03-29T03:37:01.922Z,94030.47
2023-03-29T03:39:32.740Z,94030.38
2023-03-29T03:42:02.738Z,94026.88
2023-03-29T03:44:29.691Z,94046.91
2023-03-29T03:47:14.842Z,94035.44
2023-03-29T03:49:42.850Z,94038.75
2023-03-29T03:52:09.938Z,94041.94
2023-03-29T03:54:36.899Z,94032.66
2023-03-29T03:57:24.732Z,94045.34
2023-03-29T03:59:53.178Z,94052.91
2023-03-29T04:02:38.813Z,94048.69
2023-03-29T04:05:06.479Z,94066.25
2023-03-29T04:07:36.848Z,94056.31
2023-03-29T04:10:22.736Z,94058.69
2023-03-29T04:13:12.131Z,94064.44
2023-03-29T04:16:01.422Z,94077.38
2023-03-29T04:18:29.345Z,94070.63
2023-03-29T04:20:59.010Z,94073.81
2023-03-29T04:23:27.560Z,94067.78
2023-03-29T04:25:55.774Z,94063.63
2023-03-29T04:28:42.969Z,94092.69
2023-03-29T04:31:15.369Z,94074.84
2023-03-29T04:34:17.811Z,94081.03
2023-03-29T04:36:46.230Z,94073.31
2023-03-29T04:39:19.364Z,94077.31
2023-03-29T04:41:51.294Z,94083.16
2023-03-29T04:44:27.005Z,94081.94
2023-03-29T04:46:56.869Z,94097.72
2023-03-29T04:49:25.990Z,94091.88
2023-03-29T04:51:54.479Z,94075.09
2023-03-29T04:54:25.217Z,94094.47
2023-03-29T04:57:05.764Z,94081.59
2023-03-29T04:59:45.651Z,94099.13
2023-03-29T05:02:38.923Z,94103.25
2023-03-29T05:05:06.423Z,94093.06
2023-03-29T05:07:33.537Z,94100.31
2023-03-29T05:10:00.907Z,94120.19
2023-03-29T05:12:28.129Z,94117.66
2023-03-29T05:14:58.710Z,94120.97
2023-03-29T05:17:27.575Z,94126.75
2023-03-29T05:19:59.785Z,94129.59
2023-03-29T05:22:27.092Z,94125.94
2023-03-29T05:24:54.157Z,94138.13
2023-03-29T05:27:23.032Z,94131.72
2023-03-29T05:30:05.284Z,94139.13
2023-03-29T05:32:49.293Z,94137.22
2023-03-29T05:35:20.099Z,94140.31
2023-03-29T05:37:47.404Z,94139.66
2023-03-29T05:40:14.551Z,94143.00
2023-03-29T05:43:02.694Z,94152.59
2023-03-29T05:45:32.595Z,94143.31
2023-03-29T05:47:59.836Z,94139.38
2023-03-29T05:50:26.906Z,94137.25
2023-03-29T05:52:56.049Z,94158.78
2023-03-29T05:55:23.814Z,94143.59
2023-03-29T05:57:50.811Z,94145.22
2023-03-29T06:00:25.798Z,94153.53
2023-03-29T06:03:17.566Z,94150.47
2023-03-29T06:05:49.970Z,94151.00
2023-03-29T06:08:17.283Z,94148.56
2023-03-29T06:11:09.098Z,94152.81
2023-03-29T06:13:54.863Z,94151.38
2023-03-29T06:16:22.601Z,94168.09
2023-03-29T06:18:50.983Z,94171.63
2023-03-29T06:21:18.015Z,94168.00
2023-03-29T06:23:45.385Z,94167.00
2023-03-29T06:26:13.022Z,94177.31
2023-03-29T06:28:40.608Z,94175.69
2023-03-29T06:31:10.271Z,94164.81
2023-03-29T06:33:40.775Z,94170.53
2023-03-29T06:36:20.207Z,94184.16
2023-03-29T06:38:47.375Z,94181.00
2023-03-29T06:41:33.068Z,94178.41
2023-03-29T06:44:22.915Z,94180.47
2023-03-29T06:47:00.294Z,94187.63
2023-03-29T06:49:28.397Z,94192.41
2023-03-29T06:52:06.730Z,94190.78
2023-03-29T06:54:33.880Z,94213.44
2023-03-29T06:57:04.749Z,94192.94
2023-03-29T06:59:35.064Z,94190.78
2023-03-29T07:02:20.832Z,94198.44
2023-03-29T07:04:54.562Z,94178.09
2023-03-29T07:07:43.988Z,94185.31
2023-03-29T07:10:26.373Z,94178.56
2023-03-29T07:13:26.412Z,94185.59
2023-03-29T07:15:55.459Z,94181.06
2023-03-29T07:18:32.528Z,94182.03
2023-03-29T07:20:59.913Z,94178.53
2023-03-29T07:23:28.249Z,94185.78
2023-03-29T07:25:55.759Z,94186.88
2023-03-29T07:28:22.842Z,94168.03
2023-03-29T07:30:51.590Z,94182.94
2023-03-29T07:33:21.371Z,94189.81
2023-03-29T07:35:51.637Z,94181.06
2023-03-29T07:38:18.842Z,94184.34
2023-03-29T07:40:51.808Z,94172.56
2023-03-29T07:43:36.883Z,94168.19
2023-03-29T07:46:05.120Z,94167.69
2023-03-29T07:48:36.503Z,94174.16
2023-03-29T07:51:07.251Z,94172.97
2023-03-29T07:53:43.073Z,94169.84
2023-03-29T07:56:34.561Z,94154.47
2023-03-29T07:59:11.273Z,94146.41
2023-03-29T08:01:41.055Z,94140.31
2023-03-29T08:04:11.252Z,94133.56
2023-03-29T08:07:01.580Z,94153.19
2023-03-29T08:09:46.155Z,94151.34
2023-03-29T08:12:14.501Z,94151.13
2023-03-29T08:14:41.566Z,94125.22
2023-03-29T08:17:19.435Z,94135.47
2023-03-29T08:19:51.289Z,94133.34
2023-03-29T08:22:22.323Z,94131.78
2023-03-29T08:25:16.665Z,94135.81
2023-03-29T08:27:49.585Z,94128.31
2023-03-29T08:30:25.787Z,94142.03
2023-03-29T08:32:55.270Z,94128.97
2023-03-29T08:35:22.957Z,94118.19
2023-03-29T08:38:02.469Z,94137.56
2023-03-29T08:40:32.414Z,94132.94
2023-03-29T08:43:30.378Z,94138.69
2023-03-29T08:46:22.278Z,94131.41
2023-03-29T08:48:51.952Z,94126.56
2023-03-29T08:51:24.799Z,94127.78
2023-03-29T08:53:54.283Z,94136.59
2023-03-29T08:56:36.610Z,94133.94
2023-03-29T08:59:27.007Z,94133.09
2023-03-29T09:01:56.055Z,94126.59
2023-03-29T09:04:25.415Z,94120.03
2023-03-29T09:06:59.572Z,94127.03
2023-03-29T09:09:34.251Z,94119.63
2023-03-29T09:12:26.072Z,94117.13
2023-03-29T09:15:04.769Z,94129.34
2023-03-29T09:17:41.632Z,94121.78
2023-03-29T09:20:21.825Z,94121.53
2023-03-29T09:22:55.182Z,94113.72
2023-03-29T09:25:25.338Z,94110.81
2023-03-29T09:27:59.027Z,94111.50
2023-03-29T09:30:41.587Z,94127.22
2023-03-29T09:33:13.987Z,94111.28
2023-03-29T09:36:05.300Z,94141.06
2023-03-29T09:38:35.290Z,94118.63
2023-03-29T09:41:18.140Z,94102.09
2023-03-29T09:43:45.341Z,94094.47
2023-03-29T09:46:21.780Z,94105.78
2023-03-29T09:48:50.039Z,94111.31
2023-03-29T09:51:18.303Z,94110.00
2023-03-29T09:53:47.022Z,94114.03
2023-03-29T09:56:29.300Z,94122.81
2023-03-29T09:59:07.306Z,94106.63
2023-03-29T10:01:38.899Z,94093.56
2023-03-29T10:04:09.252Z,94104.59
2023-03-29T10:06:43.405Z,94098.25
2023-03-29T10:09:16.430Z,94095.97
2023-03-29T10:11:47.816Z,94088.41
2023-03-29T10:14:17.700Z,94093.53
2023-03-29T10:16:46.613Z,94090.25
2023-03-29T10:19:19.330Z,94084.69
2023-03-29T10:21:49.026Z,94089.50
2023-03-29T10:24:19.152Z,94087.19
2023-03-29T10:26:47.133Z,94081.38
2023-03-29T10:29:14.379Z,94079.19
2023-03-29T10:31:43.176Z,94080.25
2023-03-29T10:34:15.255Z,94075.47
2023-03-29T10:36:44.961Z,94088.22
2023-03-29T10:39:14.847Z,94074.78
2023-03-29T10:41:42.788Z,94071.84
2023-03-29T10:44:25.301Z,94079.19
2023-03-29T10:46:52.329Z,94077.16
2023-03-29T10:49:22.306Z,94070.44
2023-03-29T10:51:50.798Z,94078.88
2023-03-29T10:54:20.412Z,94068.06
2023-03-29T10:56:50.816Z,94065.53
2023-03-29T10:59:29.977Z,94064.63
2023-03-29T11:02:29.789Z,94066.66
2023-03-29T11:05:07.074Z,94060.50
2023-03-29T11:07:35.700Z,94067.25
2023-03-29T11:10:10.625Z,94056.22
2023-03-29T11:12:42.025Z,94048.78
2023-03-29T11:15:20.504Z,94063.75
2023-03-29T11:17:56.122Z,94048.34
2023-03-29T11:20:30.512Z,94056.81
2023-03-29T11:23:06.238Z,94043.44
2023-03-29T11:25:42.158Z,94038.16
2023-03-29T11:28:14.213Z,94050.44
2023-03-29T11:30:46.215Z,94046.69
2023-03-29T11:33:22.282Z,94035.94
2023-03-29T11:35:54.706Z,94043.03
2023-03-29T11:38:25.786Z,94036.72
2023-03-29T11:41:00.619Z,94051.84
2023-03-29T11:43:32.357Z,94048.00
2023-03-29T11:46:02.940Z,94048.78
2023-03-29T11:48:32.496Z,94038.09
2023-03-29T11:51:06.835Z,94030.28
2023-03-29T11:53:39.503Z,94024.47
2023-03-29T11:56:10.805Z,94030.75
2023-03-29T11:58:40.248Z,94023.00
2023-03-29T12:01:10.946Z,94028.91
2023-03-29T12:03:43.124Z,94007.25
2023-03-29T12:06:16.945Z,94020.13
2023-03-29T12:08:46.477Z,94009.84
2023-03-29T12:11:19.873Z,94041.00
2023-03-29T12:13:52.576Z,94010.38
2023-03-29T12:16:23.465Z,94026.47
2023-03-29T12:18:54.584Z,94023.84
2023-03-29T12:21:24.206Z,94022.25
2023-03-29T12:23:52.755Z,94025.09
2023-03-29T12:26:30.860Z,94026.22
2023-03-29T12:29:30.080Z,94045.06
2023-03-29T12:32:08.878Z,94019.63
2023-03-29T12:34:54.792Z,94023.03
2023-03-29T12:37:45.789Z,94048.47
2023-03-29T12:40:40.015Z,94040.41
2023-03-29T12:43:27.589Z,94037.34
2023-03-29T12:46:16.760Z,94041.78
2023-03-29T12:48:45.812Z,94038.50
2023-03-29T12:51:14.405Z,94051.66
2023-03-29T12:53:45.262Z,94030.63
2023-03-29T12:56:14.915Z,94045.22
2023-03-29T12:58:50.550Z,94036.41
2023-03-29T13:01:29.896Z,94040.28
2023-03-29T13:04:13.868Z,94042.78
2023-03-29T13:07:12.373Z,94045.47
2023-03-29T13:09:50.717Z,94048.22
2023-03-29T13:12:27.223Z,94034.13
2023-03-29T13:14:56.025Z,94040.31
2023-03-29T13:17:25.703Z,94034.28
2023-03-29T13:20:04.137Z,94040.72
2023-03-29T13:22:36.649Z,94043.69
2023-03-29T13:25:20.583Z,94039.38
2023-03-29T13:27:52.768Z,94039.22
2023-03-29T13:30:25.790Z,94052.41
2023-03-29T13:32:59.676Z,94038.16
2023-03-29T13:35:33.633Z,94046.03
2023-03-29T13:38:07.894Z,94045.13
2023-03-29T13:40:46.999Z,94036.31
2023-03-29T13:43:23.511Z,94045.09
2023-03-29T13:46:17.780Z,94041.94
2023-03-29T13:49:01.151Z,94042.41
2023-03-29T13:51:38.516Z,94037.03
2023-03-29T13:54:13.604Z,94033.41
2023-03-29T13:56:51.577Z,94037.19
2023-03-29T13:59:20.995Z,94037.47
2023-03-29T14:01:51.723Z,94041.63
2023-03-29T14:04:24.314Z,94038.03
2023-03-29T14:06:53.501Z,94040.03
2023-03-29T14:09:22.305Z,94032.34
2023-03-29T14:11:51.581Z,94032.34
2023-03-29T14:14:22.277Z,94037.88
2023-03-29T14:16:49.463Z,94050.66
2023-03-29T14:19:19.353Z,94037.34
2023-03-29T14:21:46.581Z,94035.50
2023-03-29T14:24:18.828Z,94040.78
2023-03-29T14:26:47.445Z,94028.41
2023-03-29T14:29:16.282Z,94042.75
2023-03-29T14:31:43.373Z,94050.44
2023-03-29T14:34:13.723Z,94046.09
2023-03-29T14:36:41.720Z,94054.91
2023-03-29T14:39:13.153Z,94070.78
2023-03-29T14:41:43.146Z,94054.41
2023-03-29T14:44:11.398Z,94046.13
2023-03-29T14:46:40.276Z,94055.13
2023-03-29T14:49:07.732Z,94060.53
2023-03-29T14:51:36.096Z,94057.97
2023-03-29T14:54:03.806Z,94059.41
2023-03-29T14:56:32.652Z,94059.09
2023-03-29T14:59:03.608Z,94066.09
2023-03-29T15:01:31.380Z,94052.09
2023-03-29T15:04:05.683Z,94052.59
2023-03-29T15:06:33.178Z,94054.03
2023-03-29T15:09:06.562Z,94068.50
2023-03-29T15:11:35.160Z,94062.25
2023-03-29T15:14:04.083Z,94066.16
2023-03-29T15:16:31.361Z,94063.75
2023-03-29T15:18:58.882Z,94064.69
2023-03-29T15:21:33.869Z,94074.78
2023-03-29T15:24:01.152Z,94075.47
2023-03-29T15:26:31.372Z,94077.03
2023-03-29T15:29:03.196Z,94078.72
2023-03-29T15:31:34.846Z,94079.75
2023-03-29T15:34:06.234Z,94088.97
2023-03-29T15:36:42.294Z,94089.66
2023-03-29T15:39:12.143Z,94091.28
2023-03-29T15:41:39.464Z,94093.16
2023-03-29T15:44:07.238Z,94092.09
2023-03-29T15:46:34.267Z,94094.63
2023-03-29T15:49:01.614Z,94099.03
2023-03-29T15:51:28.572Z,94111.81
2023-03-29T15:53:56.964Z,94105.97
2023-03-29T15:56:23.960Z,94105.41
2023-03-29T15:58:51.018Z,94110.19
2023-03-29T16:01:33.555Z,94114.59
2023-03-29T16:04:00.811Z,94107.44
2023-03-29T16:06:27.943Z,94121.41
2023-03-29T16:08:57.436Z,94108.75
2023-03-29T16:11:24.619Z,94111.25
2023-03-29T16:13:51.638Z,94118.25
2023-03-29T16:16:18.691Z,94115.75
2023-03-29T16:18:45.841Z,94111.84
2023-03-29T16:21:15.751Z,94111.25
2023-03-29T16:23:43.029Z,94115.34
2023-03-29T16:26:13.113Z,94117.19
2023-03-29T16:28:43.064Z,94117.56
2023-03-29T16:31:11.265Z,94119.31
2023-03-29T16:33:38.278Z,94124.41
2023-03-29T16:36:06.767Z,94119.56
2023-03-29T16:38:34.190Z,94121.56
2023-03-29T16:41:01.764Z,94121.25
2023-03-29T16:43:30.620Z,94119.88
2023-03-29T16:45:57.456Z,94124.16
2023-03-29T16:48:24.498Z,94133.94
2023-03-29T16:50:51.814Z,94128.50
2023-03-29T16:53:19.772Z,94129.09
2023-03-29T16:55:46.847Z,94130.25
2023-03-29T16:58:15.543Z,94133.50
2023-03-29T17:00:47.976Z,94135.50
2023-03-29T17:03:15.893Z,94137.78
2023-03-29T17:05:47.192Z,94138.75
2023-03-29T17:08:14.267Z,94140.84
2023-03-29T17:10:41.898Z,94141.88
2023-03-29T17:13:08.875Z,94144.88
2023-03-29T17:15:39.411Z,94147.09
2023-03-29T17:18:08.282Z,94145.72
2023-03-29T17:20:38.764Z,94143.31
2023-03-29T17:23:05.799Z,94142.44
2023-03-29T17:25:32.935Z,94152.03
2023-03-29T17:27:59.915Z,94142.78
2023-03-29T17:30:26.906Z,94152.03
2023-03-29T17:32:53.956Z,94162.59
2023-03-29T17:35:22.405Z,94154.03
2023-03-29T17:37:49.626Z,94155.19
2023-03-29T17:40:18.046Z,94165.50
2023-03-29T17:42:48.812Z,94163.78
2023-03-29T17:45:16.521Z,94166.94
2023-03-29T17:47:43.648Z,94171.56
2023-03-29T17:50:11.991Z,94167.84
2023-03-29T17:52:40.484Z,94166.00
2023-03-29T17:55:11.130Z,94171.22
2023-03-29T17:57:38.997Z,94173.97
2023-03-29T18:00:09.355Z,94163.66
2023-03-29T18:02:37.100Z,94165.56
2023-03-29T18:05:04.814Z,94166.13
2023-03-29T18:07:31.988Z,94177.81
2023-03-29T18:10:00.651Z,94174.78
2023-03-29T18:12:28.530Z,94172.25
2023-03-29T18:14:57.008Z,94172.38
2023-03-29T18:17:24.416Z,94169.69
2023-03-29T18:19:51.685Z,94169.25
2023-03-29T18:22:19.724Z,94170.19
2023-03-29T18:24:46.706Z,94174.69
2023-03-29T18:27:16.024Z,94174.00
2023-03-29T18:29:44.122Z,94178.31
2023-03-29T18:32:11.411Z,94178.19
2023-03-29T18:34:39.393Z,94172.38
2023-03-29T18:37:07.485Z,94177.59
2023-03-29T18:39:35.839Z,94170.75
2023-03-29T18:42:03.054Z,94173.41
2023-03-29T18:44:31.424Z,94166.72
2023-03-29T18:46:58.445Z,94170.88
2023-03-29T18:49:25.940Z,94163.56
2023-03-29T18:51:54.442Z,94162.56
2023-03-29T18:54:21.450Z,94166.13
2023-03-29T18:56:48.466Z,94168.69
2023-03-29T18:59:17.173Z,94167.66
2023-03-29T19:01:45.861Z,94154.44
2023-03-29T19:04:13.544Z,94163.22
2023-03-29T19:06:41.501Z,94161.63
2023-03-29T19:09:08.498Z,94151.53
2023-03-29T19:11:36.192Z,94162.91
2023-03-29T19:14:03.696Z,94159.19
2023-03-29T19:16:30.800Z,94165.78
2023-03-29T19:18:59.212Z,94155.56
2023-03-29T19:21:27.867Z,94162.19
2023-03-29T19:23:54.770Z,94163.00
2023-03-29T19:26:21.847Z,94161.13
2023-03-29T19:28:48.893Z,94157.19
2023-03-29T19:31:15.983Z,94158.94
2023-03-29T19:33:42.960Z,94165.56
2023-03-29T19:36:11.327Z,94166.22
2023-03-29T19:38:38.278Z,94158.84
2023-03-29T19:41:07.643Z,94155.13
2023-03-29T19:43:35.409Z,94158.59
2023-03-29T19:46:08.040Z,94152.09
2023-03-29T19:48:35.148Z,94149.44
2023-03-29T19:51:03.717Z,94149.44
2023-03-29T19:53:32.933Z,94156.28
2023-03-29T19:56:00.098Z,94155.38
2023-03-29T19:58:27.180Z,94155.00
2023-03-29T20:00:58.079Z,94156.03
2023-03-29T20:03:28.332Z,94151.28
2023-03-29T20:05:56.404Z,94162.31
2023-03-29T20:08:24.819Z,94151.44
2023-03-29T20:10:58.585Z,94157.81
2023-03-29T20:13:37.465Z,94164.75
2023-03-29T20:16:06.885Z,94167.41
2023-03-29T20:18:34.259Z,94164.38
2023-03-29T20:21:02.144Z,94165.09
2023-03-29T20:23:29.976Z,94161.72
2023-03-29T20:25:58.488Z,94171.88
2023-03-29T20:28:25.494Z,94173.41
2023-03-29T20:30:52.974Z,94165.06
2023-03-29T20:33:20.810Z,94176.06
2023-03-29T20:35:48.760Z,94157.75
2023-03-29T20:38:16.196Z,94163.66
2023-03-29T20:40:43.443Z,94168.78
2023-03-29T20:43:13.584Z,94173.06
2023-03-29T20:45:52.773Z,94168.78
2023-03-29T20:48:23.203Z,94167.97
2023-03-29T20:50:50.930Z,94165.56
2023-03-29T20:53:18.481Z,94180.72
2023-03-29T20:55:45.651Z,94170.28
2023-03-29T20:58:15.876Z,94170.28
2023-03-29T21:00:43.701Z,94176.06
2023-03-29T21:03:11.193Z,94169.22
2023-03-29T21:05:39.065Z,94174.06
2023-03-29T21:08:06.290Z,94168.88
2023-03-29T21:10:33.394Z,94168.19
2023-03-29T21:13:02.826Z,94158.22
2023-03-29T21:15:31.944Z,94156.47
2023-03-29T21:17:59.235Z,94151.94
2023-03-29T21:20:27.714Z,94157.72
2023-03-29T21:22:54.754Z,94161.28
2023-03-29T21:25:21.752Z,94162.69
2023-03-29T21:27:49.224Z,94147.63
2023-03-29T21:30:16.618Z,94166.31
2023-03-29T21:32:45.042Z,94164.47
2023-03-29T21:35:12.578Z,94160.19
2023-03-29T21:37:39.686Z,94160.03
2023-03-29T21:40:09.267Z,94159.00
2023-03-29T21:42:36.715Z,94163.06
2023-03-29T21:45:04.632Z,94152.28
2023-03-29T21:47:31.733Z,94154.84
2023-03-29T21:50:00.124Z,94152.28
2023-03-29T21:52:27.454Z,94162.84
2023-03-29T21:54:54.404Z,94133.97
2023-03-29T21:57:21.481Z,94157.84
2023-03-29T21:59:48.510Z,94141.88
2023-03-29T22:02:15.535Z,94147.53
2023-03-29T22:04:42.657Z,94145.00
2023-03-29T22:07:11.061Z,94147.28
2023-03-29T22:09:41.725Z,94137.78
2023-03-29T22:12:09.955Z,94143.25
2023-03-29T22:14:37.328Z,94148.91
2023-03-29T22:17:08.012Z,94142.69
2023-03-29T22:19:39.251Z,94135.03
2023-03-29T22:22:07.313Z,94141.63
2023-03-29T22:24:35.708Z,94151.13
2023-03-29T22:27:03.893Z,94139.78
2023-03-29T22:29:31.075Z,94139.19
2023-03-29T22:31:58.077Z,94136.53
2023-03-29T22:34:25.138Z,94124.50
2023-03-29T22:36:52.102Z,94116.13
2023-03-29T22:39:19.104Z,94129.69
2023-03-29T22:41:47.518Z,94123.66
2023-03-29T22:44:14.568Z,94127.59
2023-03-29T22:46:41.553Z,94136.28
2023-03-29T22:49:08.551Z,94133.88
2023-03-29T22:51:35.922Z,94130.97
2023-03-29T22:54:03.046Z,94138.97
2023-03-29T22:56:30.000Z,94132.44
2023-03-29T22:58:58.407Z,94138.34
2023-03-29T23:01:25.683Z,94130.03
2023-03-29T23:03:52.785Z,94138.72
2023-03-29T23:06:19.927Z,94132.13
2023-03-29T23:08:47.119Z,94127.03
2023-03-29T23:11:14.251Z,94138.97
2023-03-29T23:13:41.265Z,94127.41
2023-03-29T23:16:10.085Z,94133.63
2023-03-29T23:18:37.726Z,94125.31
2023-03-29T23:21:06.072Z,94131.44
2023-03-29T23:23:33.800Z,94133.69
2023-03-29T23:26:01.700Z,94124.31
2023-03-29T23:28:30.739Z,94124.97
2023-03-29T23:31:00.561Z,94127.16
2023-03-29T23:33:36.361Z,94123.81
2023-03-29T23:36:05.809Z,94145.47
2023-03-29T23:38:34.320Z,94133.06
2023-03-29T23:41:03.575Z,94128.91
2023-03-29T23:43:32.921Z,94127.88
2023-03-29T23:46:01.692Z,94131.59
2023-03-29T23:48:30.298Z,94137.72
2023-03-29T23:50:57.427Z,94128.34
2023-03-29T23:53:25.471Z,94124.63
2023-03-29T23:55:56.168Z,94131.44
2023-03-29T23:58:23.145Z,94130.41
